createdAt,value
2018-12-05T00:01:19.073Z,5.65
2018-12-05T00:03:47.735Z,5.62
2018-12-05T00:06:13.697Z,5.57
2018-12-05T00:08:43.559Z,5.64
2018-12-05T00:11:09.525Z,5.60
2018-12-05T00:13:35.438Z,5.60
2018-12-05T00:16:01.345Z,5.63
2018-12-05T00:18:27.197Z,5.62
2018-12-05T00:20:54.830Z,5.58
2018-12-05T00:23:20.689Z,5.64
2018-12-05T00:25:49.539Z,5.68
2018-12-05T00:28:15.446Z,5.65
2018-12-05T00:30:45.236Z,5.62
2018-12-05T00:33:11.111Z,5.66
2018-12-05T00:35:38.841Z,5.70
2018-12-05T00:38:04.712Z,5.67
2018-12-05T00:40:34.572Z,5.66
2018-12-05T00:43:00.436Z,5.58
2018-12-05T00:45:29.539Z,5.63
2018-12-05T00:47:55.611Z,5.75
2018-12-05T00:50:21.496Z,5.82
2018-12-05T00:52:47.354Z,5.75
2018-12-05T00:55:13.231Z,5.73
2018-12-05T00:57:40.122Z,5.72
2018-12-05T01:00:07.066Z,5.79
2018-12-05T01:02:36.080Z,5.77
2018-12-05T01:05:02.276Z,5.73
2018-12-05T01:07:29.933Z,5.74
2018-12-05T01:09:55.803Z,5.75
2018-12-05T01:12:24.876Z,5.80
2018-12-05T01:14:51.334Z,5.79
2018-12-05T01:17:20.404Z,5.81
2018-12-05T01:19:46.271Z,5.78
2018-12-05T01:22:15.335Z,5.74
2018-12-05T01:24:41.260Z,5.60
2018-12-05T01:27:07.154Z,5.56
2018-12-05T01:29:33.021Z,5.72
2018-12-05T01:31:58.943Z,5.73
2018-12-05T01:34:25.448Z,5.73
2018-12-05T01:36:51.428Z,5.71
2018-12-05T01:39:19.601Z,5.68
2018-12-05T01:41:45.512Z,5.75
2018-12-05T01:46:42.377Z,5.78
2018-12-05T01:49:11.369Z,5.71
2018-12-05T01:51:37.307Z,5.71
2018-12-05T01:54:04.688Z,5.66
2018-12-05T01:56:30.585Z,5.48
2018-12-05T01:59:00.416Z,5.34
2018-12-05T02:01:26.323Z,5.23
2018-12-05T02:03:52.171Z,5.18
2018-12-05T02:06:18.090Z,5.17
2018-12-05T02:08:43.957Z,5.26
2018-12-05T02:11:11.120Z,5.28
2018-12-05T02:13:37.059Z,5.24
2018-12-05T02:16:07.007Z,5.22
2018-12-05T02:18:33.159Z,5.31
2018-12-05T02:21:00.713Z,5.36
2018-12-05T02:23:26.612Z,5.41
2018-12-05T02:25:55.697Z,5.48
2018-12-05T02:28:21.595Z,5.54
2018-12-05T02:30:50.702Z,5.51
2018-12-05T02:33:16.747Z,5.58
2018-12-05T02:35:44.460Z,5.56
2018-12-05T02:38:10.357Z,5.56
2018-12-05T02:40:36.334Z,5.52
2018-12-05T02:43:02.263Z,5.46
2018-12-05T02:45:28.174Z,5.46
2018-12-05T02:47:57.243Z,5.46
2018-12-05T02:50:23.136Z,5.35
2018-12-05T02:52:51.085Z,5.40
2018-12-05T02:55:16.980Z,5.30
2018-12-05T02:57:46.061Z,5.31
2018-12-05T03:00:12.164Z,5.30
2018-12-05T03:02:41.663Z,5.30
2018-12-05T03:05:07.991Z,5.31
2018-12-05T03:07:35.413Z,5.28
2018-12-05T03:10:01.438Z,5.32
2018-12-05T03:12:30.346Z,5.32
2018-12-05T03:14:59.766Z,5.41
2018-12-05T03:17:27.357Z,5.43
2018-12-05T03:19:53.237Z,5.40
2018-12-05T03:22:19.126Z,5.41
2018-12-05T03:24:45.045Z,5.46
2018-12-05T03:27:10.916Z,5.47
2018-12-05T03:29:36.834Z,5.51
2018-12-05T03:32:02.724Z,5.46
2018-12-05T03:34:31.891Z,5.53
2018-12-05T03:36:57.901Z,5.53
2018-12-05T03:39:26.923Z,5.58
2018-12-05T03:41:52.800Z,5.64
2018-12-05T03:44:21.854Z,5.67
2018-12-05T03:46:47.761Z,5.67
2018-12-05T03:49:14.917Z,5.71
2018-12-05T03:51:40.848Z,5.63
2018-12-05T03:54:06.734Z,5.72
2018-12-05T03:56:32.622Z,5.66
2018-12-05T03:58:58.532Z,5.59
2018-12-05T04:01:27.963Z,5.52
2018-12-05T04:03:53.958Z,5.54
2018-12-05T04:06:21.738Z,5.54
2018-12-05T04:08:47.627Z,5.47
2018-12-05T04:11:17.546Z,5.55
2018-12-05T04:13:43.430Z,5.58
2018-12-05T04:16:11.228Z,5.52
2018-12-05T04:18:37.128Z,5.49
2018-12-05T04:21:06.860Z,5.54
2018-12-05T04:23:32.907Z,5.52
2018-12-05T04:26:00.599Z,5.58
2018-12-05T04:28:26.513Z,5.53
2018-12-05T04:30:52.421Z,5.49
2018-12-05T04:33:18.356Z,5.51
2018-12-05T04:35:44.254Z,5.50
2018-12-05T04:38:13.495Z,5.52
2018-12-05T04:40:39.420Z,5.47
2018-12-05T04:43:07.128Z,5.48
2018-12-05T04:45:33.029Z,5.52
2018-12-05T04:48:02.876Z,5.57
2018-12-05T04:50:28.834Z,5.68
2018-12-05T04:52:56.404Z,5.66
2018-12-05T04:55:22.256Z,5.67
2018-12-05T04:57:51.028Z,5.75
2018-12-05T05:00:16.971Z,5.79
2018-12-05T05:02:46.694Z,5.80
2018-12-05T05:05:12.756Z,5.85
2018-12-05T05:07:38.645Z,5.68
2018-12-05T05:10:05.060Z,5.61
2018-12-05T05:12:31.074Z,5.67
2018-12-05T05:14:57.170Z,5.76
2018-12-05T05:17:23.077Z,5.74
2018-12-05T05:19:52.154Z,5.77
2018-12-05T05:22:18.032Z,5.73
2018-12-05T05:24:47.478Z,5.56
2018-12-05T05:27:13.359Z,5.45
2018-12-05T05:29:42.848Z,5.40
2018-12-05T05:32:08.769Z,4.64
2018-12-05T05:34:36.661Z,5.36
2018-12-05T05:37:02.569Z,5.52
2018-12-05T05:39:32.508Z,5.41
2018-12-05T05:41:58.435Z,5.46
2018-12-05T05:44:24.363Z,5.47
2018-12-05T05:46:50.271Z,5.50
2018-12-05T05:49:16.854Z,5.54
2018-12-05T05:51:42.808Z,5.48
2018-12-05T05:54:08.838Z,5.50
2018-12-05T05:56:37.553Z,5.57
2018-12-05T05:59:03.552Z,5.58
2018-12-05T06:01:32.372Z,5.63
2018-12-05T06:03:58.313Z,5.67
2018-12-05T06:06:27.860Z,5.63
2018-12-05T06:08:53.764Z,5.46
2018-12-05T06:11:22.660Z,5.54
2018-12-05T06:13:48.578Z,5.50
2018-12-05T06:16:16.445Z,5.49
2018-12-05T06:18:42.320Z,5.40
2018-12-05T06:21:08.275Z,5.35
2018-12-05T06:23:34.202Z,5.35
2018-12-05T06:26:00.133Z,5.43
2018-12-05T06:28:29.691Z,5.41
2018-12-05T06:30:55.573Z,5.43
2018-12-05T06:33:24.522Z,5.46
2018-12-05T06:35:50.404Z,5.49
2018-12-05T06:38:17.358Z,5.65
2018-12-05T06:40:43.226Z,5.59
2018-12-05T06:43:12.210Z,5.71
2018-12-05T06:45:38.128Z,5.79
2018-12-05T06:48:07.998Z,5.85
2018-12-05T06:50:33.970Z,5.90
2018-12-05T06:53:03.100Z,5.83
2018-12-05T06:55:29.030Z,5.69
2018-12-05T06:57:55.132Z,5.66
2018-12-05T07:00:21.020Z,5.56
2018-12-05T07:02:46.888Z,5.54
2018-12-05T07:05:14.092Z,5.44
2018-12-05T07:07:39.999Z,5.45
2018-12-05T07:10:07.842Z,5.48
2018-12-05T07:12:33.782Z,5.54
2018-12-05T07:15:02.847Z,5.54
2018-12-05T07:17:28.791Z,5.52
2018-12-05T07:19:58.224Z,5.49
2018-12-05T07:22:24.153Z,5.56
2018-12-05T07:24:53.488Z,5.60
2018-12-05T07:27:19.411Z,5.70
2018-12-05T07:29:47.114Z,5.76
2018-12-05T07:32:13.050Z,5.77
2018-12-05T07:34:38.945Z,5.90
2018-12-05T07:37:04.821Z,6.02
2018-12-05T07:39:30.692Z,6.13
2018-12-05T07:42:00.012Z,6.20
2018-12-05T07:44:25.883Z,6.26
2018-12-05T07:46:53.750Z,6.37
2018-12-05T07:49:19.646Z,6.36
2018-12-05T07:51:48.030Z,6.51
2018-12-05T07:54:13.928Z,6.59
2018-12-05T07:56:43.212Z,6.66
2018-12-05T07:59:09.105Z,6.81
2018-12-05T08:01:38.943Z,6.66
2018-12-05T08:04:04.955Z,6.69
2018-12-05T08:06:32.562Z,6.73
2018-12-05T08:08:58.497Z,6.79
2018-12-05T08:11:24.474Z,6.85
2018-12-05T08:13:50.353Z,6.83
2018-12-05T08:16:16.281Z,6.78
2018-12-05T08:18:45.687Z,6.72
2018-12-05T08:21:11.565Z,6.75
2018-12-05T08:23:38.654Z,6.76
2018-12-05T08:26:04.530Z,6.76
2018-12-05T08:28:34.241Z,6.70
2018-12-05T08:31:00.142Z,6.63
2018-12-05T08:33:29.152Z,6.57
2018-12-05T08:35:55.058Z,6.49
2018-12-05T08:38:22.959Z,6.55
2018-12-05T08:40:48.889Z,6.41
2018-12-05T08:43:18.516Z,6.35
2018-12-05T08:45:44.398Z,6.41
2018-12-05T08:48:10.272Z,6.54
2018-12-05T08:50:36.180Z,6.66
2018-12-05T08:53:02.090Z,6.63
2018-12-05T08:55:29.828Z,6.56
2018-12-05T08:57:55.706Z,6.64
2018-12-05T09:00:25.679Z,6.56
2018-12-05T09:02:51.632Z,6.61
2018-12-05T09:05:19.503Z,6.68
2018-12-05T09:07:45.413Z,6.68
2018-12-05T09:10:14.403Z,6.72
2018-12-05T09:12:40.439Z,6.61
2018-12-05T09:15:08.264Z,6.53
2018-12-05T09:17:34.190Z,6.61
2018-12-05T09:20:04.004Z,6.78
2018-12-05T09:22:41.054Z,7.04
2018-12-05T09:25:01.953Z,7.28
2018-12-05T09:27:27.832Z,7.36
2018-12-05T09:29:53.724Z,7.53
2018-12-05T09:32:19.617Z,7.67
2018-12-05T09:34:45.515Z,7.45
2018-12-05T09:37:11.392Z,7.34
2018-12-05T09:39:37.297Z,7.42
2018-12-05T09:42:04.178Z,7.51
2018-12-05T09:44:30.089Z,7.62
2018-12-05T09:46:58.872Z,7.79
2018-12-05T09:49:24.771Z,8.00
2018-12-05T09:51:53.898Z,8.18
2018-12-05T09:54:19.786Z,8.46
2018-12-05T09:56:49.614Z,8.71
2018-12-05T09:59:15.515Z,8.72
2018-12-05T10:01:41.412Z,8.82
2018-12-05T10:04:07.303Z,9.05
2018-12-05T10:06:33.226Z,9.07
2018-12-05T10:09:00.388Z,8.72
2018-12-05T10:11:26.258Z,8.63
2018-12-05T10:13:54.731Z,8.52
2018-12-05T10:16:23.084Z,8.60
2018-12-05T10:18:49.864Z,8.79
2018-12-05T10:21:15.745Z,8.95
2018-12-05T10:23:45.523Z,9.01
2018-12-05T10:26:11.466Z,9.02
2018-12-05T10:28:40.464Z,9.07
2018-12-05T10:31:06.642Z,9.22
2018-12-05T10:33:33.396Z,9.92
2018-12-05T10:35:59.286Z,10.43
2018-12-05T10:38:25.186Z,11.53
2018-12-05T10:40:51.059Z,12.72
2018-12-05T10:43:16.942Z,12.76
2018-12-05T10:45:46.756Z,12.54
2018-12-05T10:48:12.666Z,12.07
2018-12-05T10:50:40.161Z,11.46
2018-12-05T10:53:06.178Z,11.08
2018-12-05T10:55:34.463Z,10.51
2018-12-05T10:58:00.352Z,10.31
2018-12-05T11:00:32.590Z,9.85
2018-12-05T11:06:08.966Z,9.83
2018-12-05T11:08:41.186Z,9.84
2018-12-05T11:11:13.206Z,9.67
2018-12-05T11:13:45.342Z,9.52
2018-12-05T11:19:15.960Z,9.71
2018-12-05T11:21:52.746Z,9.84
2018-12-05T11:24:25.097Z,9.86
2018-12-05T11:26:51.921Z,9.93
2018-12-05T11:29:17.808Z,10.01
2018-12-05T11:31:43.646Z,10.20
2018-12-05T11:34:09.519Z,10.64
2018-12-05T11:36:35.436Z,10.79
2018-12-05T11:39:01.329Z,10.91
2018-12-05T11:41:27.211Z,10.97
2018-12-05T11:43:53.112Z,10.94
2018-12-05T11:46:19.150Z,10.91
2018-12-05T11:48:45.019Z,10.97
2018-12-05T11:51:11.131Z,10.97
2018-12-05T11:53:37.020Z,10.83
2018-12-05T11:56:02.933Z,10.59
2018-12-05T11:58:28.898Z,10.23
2018-12-05T12:00:54.800Z,10.18
2018-12-05T12:03:20.705Z,10.28
2018-12-05T12:05:46.588Z,10.32
2018-12-05T12:08:12.472Z,10.17
2018-12-05T12:10:39.190Z,10.08
2018-12-05T12:13:05.303Z,9.86
2018-12-05T12:15:31.589Z,9.86
2018-12-05T12:17:57.523Z,9.93
2018-12-05T12:20:23.431Z,9.77
2018-12-05T12:22:53.228Z,9.68
2018-12-05T12:25:19.098Z,9.51
2018-12-05T12:27:44.968Z,9.53
2018-12-05T12:30:15.820Z,9.71
2018-12-05T12:32:38.718Z,9.79
2018-12-05T12:35:04.771Z,9.80
2018-12-05T12:37:30.639Z,10.14
2018-12-05T12:39:56.599Z,10.37
2018-12-05T12:42:22.475Z,10.61
2018-12-05T12:44:48.359Z,10.27
2018-12-05T12:47:14.206Z,9.93
2018-12-05T12:49:40.091Z,9.93
2018-12-05T12:52:06.020Z,9.77
2018-12-05T12:54:31.900Z,9.47
2018-12-05T12:56:57.819Z,9.32
2018-12-05T12:59:23.710Z,9.44
2018-12-05T13:01:49.670Z,9.54
2018-12-05T13:04:15.605Z,9.70
2018-12-05T13:06:41.490Z,9.72
2018-12-05T13:09:07.391Z,9.68
2018-12-05T13:11:36.619Z,9.74
2018-12-05T13:14:02.526Z,9.48
2018-12-05T13:16:31.487Z,9.61
2018-12-05T13:18:57.406Z,9.64
2018-12-05T13:21:23.301Z,9.74
2018-12-05T13:23:49.228Z,9.94
2018-12-05T13:26:15.090Z,9.80
2018-12-05T13:28:42.509Z,9.78
2018-12-05T13:31:08.413Z,9.66
2018-12-05T13:33:37.443Z,9.57
2018-12-05T13:36:03.720Z,9.55
2018-12-05T13:38:31.235Z,9.68
2018-12-05T13:40:57.145Z,9.85
2018-12-05T13:43:25.854Z,9.80
2018-12-05T13:45:51.688Z,9.62
2018-12-05T13:48:21.326Z,9.62
2018-12-05T13:50:47.228Z,9.62
2018-12-05T13:53:16.620Z,9.59
2018-12-05T13:55:42.517Z,9.48
2018-12-05T13:58:08.429Z,9.62
2018-12-05T14:00:34.285Z,9.56
2018-12-05T14:03:00.158Z,9.47
2018-12-05T14:05:27.908Z,9.60
2018-12-05T14:07:53.826Z,9.64
2018-12-05T14:10:23.570Z,9.65
2018-12-05T14:12:49.453Z,9.60
2018-12-05T14:15:18.523Z,9.65
2018-12-05T14:17:44.404Z,9.59
2018-12-05T14:20:12.164Z,9.49
2018-12-05T14:22:38.026Z,9.29
2018-12-05T14:25:06.150Z,9.23
2018-12-05T14:27:32.075Z,9.26
2018-12-05T14:30:01.824Z,9.20
2018-12-05T14:32:27.768Z,9.09
2018-12-05T14:34:53.671Z,8.95
2018-12-05T14:37:19.594Z,8.89
2018-12-05T14:39:45.452Z,8.80
2018-12-05T14:42:12.926Z,8.67
2018-12-05T14:44:39.185Z,8.60
2018-12-05T14:47:08.756Z,8.56
2018-12-05T14:49:34.639Z,8.63
2018-12-05T14:52:03.774Z,8.62
2018-12-05T14:54:29.693Z,8.79
2018-12-05T14:56:57.403Z,8.96
2018-12-05T14:59:23.272Z,9.04
2018-12-05T15:01:52.243Z,9.09
2018-12-05T15:04:18.130Z,9.17
2018-12-05T15:06:47.024Z,9.23
2018-12-05T15:09:13.008Z,9.24
2018-12-05T15:11:38.867Z,9.21
2018-12-05T15:14:04.761Z,9.24
2018-12-05T15:16:30.631Z,9.15
2018-12-05T15:18:58.052Z,9.11
2018-12-05T15:21:23.900Z,9.05
2018-12-05T15:23:53.402Z,9.04
2018-12-05T15:26:19.292Z,8.94
2018-12-05T15:28:48.381Z,8.92
2018-12-05T15:31:15.129Z,8.77
2018-12-05T15:33:42.503Z,8.77
2018-12-05T15:36:08.391Z,8.78
2018-12-05T15:38:38.080Z,8.78
2018-12-05T15:41:03.968Z,8.78
2018-12-05T15:43:31.770Z,8.71
2018-12-05T15:45:57.657Z,8.74
2018-12-05T15:48:23.489Z,8.70
2018-12-05T15:50:49.393Z,8.73
2018-12-05T15:53:15.266Z,8.72
2018-12-05T15:55:43.082Z,8.70
2018-12-05T15:58:09.000Z,8.67
2018-12-05T16:00:38.058Z,8.63
2018-12-05T16:03:03.967Z,8.55
2018-12-05T16:05:32.892Z,8.35
2018-12-05T16:07:59.334Z,8.12
2018-12-05T16:10:28.541Z,8.01
2018-12-05T16:12:54.459Z,7.91
2018-12-05T16:15:22.397Z,7.79
2018-12-05T16:17:48.289Z,7.78
2018-12-05T16:20:16.685Z,7.74
2018-12-05T16:22:42.564Z,7.74
2018-12-05T16:25:08.481Z,7.73
2018-12-05T16:27:34.344Z,7.72
2018-12-05T16:30:00.237Z,7.78
2018-12-05T16:32:28.605Z,7.68
2018-12-05T16:34:54.533Z,7.73
2018-12-05T16:37:23.781Z,7.72
2018-12-05T16:39:49.682Z,7.66
2018-12-05T16:42:18.414Z,7.62
2018-12-05T16:44:44.308Z,7.57
2018-12-05T16:47:13.165Z,7.58
2018-12-05T16:49:40.489Z,7.30
2018-12-05T16:52:08.266Z,7.52
2018-12-05T16:54:34.458Z,7.54
2018-12-05T16:57:03.856Z,7.48
2018-12-05T16:59:29.723Z,7.45
2018-12-05T17:01:55.622Z,7.47
2018-12-05T17:04:21.506Z,6.98
2018-12-05T17:06:47.404Z,7.43
2018-12-05T17:09:14.592Z,7.49
2018-12-05T17:11:40.460Z,7.48
2018-12-05T17:14:09.381Z,7.48
2018-12-05T17:16:35.273Z,7.49
2018-12-05T17:19:05.579Z,7.50
2018-12-05T17:21:33.061Z,7.55
2018-12-05T17:23:59.196Z,7.52
2018-12-05T17:26:25.094Z,7.48
2018-12-05T17:28:54.472Z,7.50
2018-12-05T17:31:20.348Z,7.52
2018-12-05T17:33:49.458Z,7.48
2018-12-05T17:36:15.752Z,7.52
2018-12-05T17:38:41.653Z,7.46
2018-12-05T17:41:07.538Z,7.37
2018-12-05T17:43:33.887Z,7.45
2018-12-05T17:45:59.930Z,7.44
2018-12-05T17:48:25.883Z,7.36
2018-12-05T17:50:54.946Z,7.33
2018-12-05T17:53:20.836Z,7.29
2018-12-05T17:55:49.776Z,7.28
2018-12-05T17:58:15.670Z,7.26
2018-12-05T18:00:44.607Z,7.22
2018-12-05T18:03:10.532Z,7.14
2018-12-05T18:05:38.241Z,7.14
2018-12-05T18:08:04.139Z,7.22
2018-12-05T18:10:33.072Z,7.27
2018-12-05T18:12:58.967Z,7.25
2018-12-05T18:15:24.855Z,7.40
2018-12-05T18:17:51.164Z,7.43
2018-12-05T18:20:17.151Z,7.40
2018-12-05T18:22:44.684Z,7.42
2018-12-05T18:25:10.619Z,7.36
2018-12-05T18:27:39.648Z,7.23
2018-12-05T18:30:06.146Z,7.00
2018-12-05T18:32:35.171Z,7.04
2018-12-05T18:35:01.076Z,6.99
2018-12-05T18:37:29.061Z,6.99
2018-12-05T18:39:55.409Z,6.96
2018-12-05T18:42:24.694Z,6.95
2018-12-05T18:44:50.580Z,6.90
2018-12-05T18:47:19.639Z,6.89
2018-12-05T18:49:45.537Z,6.92
2018-12-05T18:52:11.577Z,6.88
2018-12-05T18:54:37.433Z,6.90
2018-12-05T18:57:09.408Z,6.99
2018-12-05T18:59:34.198Z,6.96
2018-12-05T19:02:00.078Z,7.04
2018-12-05T19:04:25.947Z,6.99
2018-12-05T19:06:51.845Z,6.89
2018-12-05T19:09:26.841Z,6.77
2018-12-05T19:11:49.242Z,6.68
2018-12-05T19:14:21.419Z,6.66
2018-12-05T19:16:48.553Z,6.69
2018-12-05T19:19:14.602Z,6.68
2018-12-05T19:21:40.576Z,6.63
2018-12-05T19:24:06.620Z,6.30
2018-12-05T19:26:32.560Z,6.57
2018-12-05T19:28:58.499Z,6.57
2018-12-05T19:31:24.413Z,6.56
2018-12-05T19:33:59.273Z,6.57
2018-12-05T19:36:25.263Z,6.52
2018-12-05T19:38:51.410Z,6.51
2018-12-05T19:41:17.409Z,6.28
2018-12-05T19:43:43.288Z,6.55
2018-12-05T19:46:09.188Z,6.51
2018-12-05T19:48:36.833Z,6.49
2018-12-05T19:51:02.986Z,6.52
2018-12-05T19:53:28.893Z,6.52
2018-12-05T19:55:54.816Z,6.54
2018-12-05T19:58:20.788Z,6.50
2018-12-05T20:00:50.339Z,6.49
2018-12-05T20:03:16.211Z,6.55
2018-12-05T20:05:42.076Z,6.55
2018-12-05T20:08:07.979Z,6.58
2018-12-05T20:10:33.921Z,6.63
2018-12-05T20:13:01.476Z,6.66
2018-12-05T20:15:30.654Z,6.64
2018-12-05T20:17:56.566Z,6.69
2018-12-05T20:20:22.722Z,6.71
2018-12-05T20:22:50.364Z,6.69
2018-12-05T20:25:16.265Z,6.68
2018-12-05T20:27:45.076Z,6.61
2018-12-05T20:30:10.971Z,6.58
2018-12-05T20:32:39.779Z,6.55
2018-12-05T20:35:05.850Z,6.54
2018-12-05T20:40:03.978Z,6.65
2018-12-05T20:42:29.991Z,6.66
2018-12-05T20:44:55.888Z,6.70
2018-12-05T20:47:21.766Z,6.09
2018-12-05T20:49:48.120Z,6.61
2018-12-05T20:52:13.996Z,6.35
2018-12-05T20:54:41.089Z,6.64
2018-12-05T20:57:07.059Z,6.64
2018-12-05T20:59:35.734Z,6.69
2018-12-05T21:02:01.639Z,6.67
2018-12-05T21:04:30.654Z,6.64
2018-12-05T21:06:56.557Z,6.63
2018-12-05T21:09:25.622Z,6.62
2018-12-05T21:11:51.528Z,6.61
2018-12-05T21:14:21.179Z,6.63
2018-12-05T21:16:47.143Z,6.67
2018-12-05T21:19:15.890Z,6.72
2018-12-05T21:21:41.818Z,6.72
2018-12-05T21:24:08.386Z,6.79
2018-12-05T21:26:34.428Z,6.79
2018-12-05T21:29:00.362Z,6.79
2018-12-05T21:31:26.250Z,6.83
2018-12-05T21:33:52.140Z,6.83
2018-12-05T21:36:21.936Z,6.83
2018-12-05T21:38:48.049Z,6.76
2018-12-05T21:41:17.114Z,6.77
2018-12-05T21:43:43.004Z,6.74
2018-12-05T21:46:10.725Z,6.83
2018-12-05T21:48:36.594Z,6.86
2018-12-05T21:51:05.512Z,6.89
2018-12-05T21:53:31.389Z,6.87
2018-12-05T21:55:57.269Z,6.95
2018-12-05T21:58:23.165Z,6.95
2018-12-05T22:00:49.051Z,6.89
2018-12-05T22:03:18.983Z,6.93
2018-12-05T22:05:44.932Z,6.97
2018-12-05T22:08:11.403Z,6.99
2018-12-05T22:10:37.260Z,7.02
2018-12-05T22:13:06.139Z,7.01
2018-12-05T22:15:32.051Z,7.12
2018-12-05T22:18:01.055Z,7.22
2018-12-05T22:20:26.942Z,7.27
2018-12-05T22:22:56.385Z,7.37
2018-12-05T22:25:22.261Z,7.41
2018-12-05T22:27:51.678Z,7.46
2018-12-05T22:30:17.608Z,7.50
2018-12-05T22:32:43.499Z,7.50
2018-12-05T22:35:11.435Z,7.33
2018-12-05T22:37:37.370Z,7.51
2018-12-05T22:40:05.422Z,7.45
2018-12-05T22:42:31.330Z,7.35
2018-12-05T22:44:57.196Z,7.34
2018-12-05T22:47:23.167Z,7.31
2018-12-05T22:49:52.268Z,7.33
2018-12-05T22:52:22.632Z,7.41
2018-12-05T22:54:48.530Z,7.35
2018-12-05T22:57:14.437Z,7.42
2018-12-05T22:59:41.751Z,7.43
2018-12-05T23:02:07.699Z,7.39
2018-12-05T23:04:36.684Z,7.39
2018-12-05T23:07:02.752Z,7.46
2018-12-05T23:09:28.650Z,7.49
2018-12-05T23:11:54.505Z,7.52
2018-12-05T23:14:20.347Z,7.56
2018-12-05T23:16:47.913Z,7.50
2018-12-05T23:19:13.773Z,7.53
2018-12-05T23:21:43.468Z,7.57
2018-12-05T23:24:09.583Z,7.48
2018-12-05T23:26:37.328Z,7.51
2018-12-05T23:29:03.372Z,7.45
2018-12-05T23:31:33.070Z,7.54
2018-12-05T23:33:58.907Z,7.52
2018-12-05T23:36:27.872Z,7.65
2018-12-05T23:38:53.746Z,7.61
2018-12-05T23:41:21.570Z,7.68
2018-12-05T23:43:47.483Z,7.75
2018-12-05T23:46:13.416Z,7.65
2018-12-05T23:48:39.307Z,7.59
2018-12-05T23:51:05.185Z,7.47
2018-12-05T23:53:37.445Z,7.32
2018-12-05T23:56:03.713Z,7.24
2018-12-05T23:58:29.612Z,7.18
